London, United Kingdom

11:18 AM BST on August 30, 2014 (GMT +0100)
Heathrow | Change Station
CLOSE
Current Station
Airport
Location: London,
Elevation: 79 ft
Nearby Weather Stations

Elev 79 ft 51.48 °N, 0.46 °W | Updated 28 minutes ago

Partly Cloudy
Partly Cloudy
63 °F
Feels Like 63 °F
N
14
Wind Variable Wind from West

Today
High -- | Low -- °F
--% Chance of Precip.
Yesterday
High -- | Low -- °F
Precip. -- in
6:11 AM 7:52 PM
Waxing Crescent, 21% visible
Pressure 29.98 in
Visibility 6.2 miles
Clouds Few 2400 ft
Dew Point 52 °F
Humidity 68%
Rainfall 0.00 in
Snow Depth Not available.
UV 5 out of 12
Pollen Not available.
Air Quality Not available.
Flu Activity Not available.
METAR EGLL 300950Z 27012KT 9999 FEW024 17/11 Q1015

More Conditions Fewer Conditions

Pressure 29.98 in
Visibility 6.2 miles
Clouds Few 2400 ft
Dew Point 52 °F
Humidity 68%
Rainfall 0.00 in
Snow Depth Not available.
UV 5 out of 12
Pollen Not available.
Air Quality Not available.
Flu Activity Not available.
METAR EGLL 300950Z 27012KT 9999 FEW024 17/11 Q1015

More Conditions Fewer Conditions

10-Day Weather Forecast

Almanac

Astronomy

Aug. 30, 2014 Rise Set
Actual Time 6:11 AM BST 7:52 PM BST
Civil Twilight 5:35 AM BST 8:27 PM BST
Nautical Twilight 4:52 AM BST 9:11 PM BST
Astronomical Twilight 4:04 AM BST 9:58 PM BST
Moon 11:20 AM BST 9:39 PM BST
Length of Visible Light 14h 52m
Length of Day
13h 41m
Tomorrow will be 3m 49s shorter.
Waxing Crescent, 21% of the Moon is Illuminated
Today
Waxing Crescent
Sep 2
First Quarter
Sep 8
Full
Sep 15
Last Quarter
Sep 24
New

Yesterday's Extremes

Country Highs Country Lows

Community

WunderPhotos

Upload Photos

1,748,481 photos uploaded!

Nearby

Snow Depth

Not available.

Earthquake Activity

City Distance Mag. Time & Date
No recent earthquake activity has been reported nearby.
Minimum magnitude displayed is 2.5.

Coastal Water Temperatures

Place Temperature
No Stations Reporting

Nearby Weather Stations